createdAt,value
2023-02-06T00:04:40.212Z,102485.06
2023-02-06T00:09:42.909Z,102501.69
2023-02-06T00:14:45.665Z,102496.66
2023-02-06T00:19:49.728Z,102489.78
2023-02-06T00:24:52.421Z,102483.72
2023-02-06T00:29:55.179Z,102485.31
2023-02-06T00:34:59.269Z,102487.78
2023-02-06T00:40:02.205Z,102490.44
2023-02-06T00:45:05.911Z,102486.22
2023-02-06T00:50:10.749Z,102482.91
2023-02-06T00:55:13.502Z,102483.94
2023-02-06T01:00:16.911Z,102502.78
2023-02-06T01:05:21.000Z,102504.63
2023-02-06T01:10:23.712Z,102504.59
2023-02-06T01:15:26.576Z,102496.94
2023-02-06T01:20:30.694Z,102511.38
2023-02-06T01:25:33.888Z,102521.66
2023-02-06T01:30:36.840Z,102507.91
2023-02-06T01:35:41.176Z,102515.66
2023-02-06T01:40:43.876Z,102508.81
2023-02-06T01:45:47.534Z,102505.28
2023-02-06T01:50:54.199Z,102493.97
2023-02-06T01:55:57.590Z,102490.59
2023-02-06T02:01:01.533Z,102486.28
2023-02-06T02:06:09.119Z,102481.09
2023-02-06T02:11:16.182Z,102484.72
2023-02-06T02:16:21.335Z,102478.88
2023-02-06T02:21:43.744Z,102472.75
2023-02-06T02:26:59.016Z,102463.50
2023-02-06T02:32:27.806Z,102466.19
2023-02-06T02:37:38.789Z,102448.03
2023-02-06T02:42:53.752Z,102446.41
2023-02-06T02:47:59.136Z,102456.91
2023-02-06T02:53:05.005Z,102451.66
2023-02-06T02:58:10.566Z,102448.13
2023-02-06T03:03:15.293Z,102439.47
2023-02-06T03:08:24.478Z,102428.31
2023-02-06T03:13:31.794Z,102430.16
2023-02-06T03:18:40.182Z,102426.88
2023-02-06T03:23:47.123Z,102430.38
2023-02-06T03:28:52.978Z,102432.88
2023-02-06T03:33:57.680Z,102423.28
2023-02-06T03:39:01.741Z,102425.72
2023-02-06T03:44:08.073Z,102422.13
2023-02-06T03:49:13.922Z,102438.47
2023-02-06T03:54:20.258Z,102430.81
2023-02-06T03:59:23.500Z,102438.59
2023-02-06T04:04:29.885Z,102430.91
2023-02-06T04:09:34.048Z,102426.59
2023-02-06T04:14:37.196Z,102426.69
2023-02-06T04:19:40.780Z,102426.53
2023-02-06T04:24:44.844Z,102428.94
2023-02-06T04:29:47.531Z,102421.06
2023-02-06T04:34:50.458Z,102416.66
2023-02-06T04:39:54.607Z,102431.00
2023-02-06T04:44:57.373Z,102450.78
2023-02-06T04:50:00.041Z,102452.53
2023-02-06T04:55:04.169Z,102448.09
2023-02-06T05:00:09.205Z,102441.09
2023-02-06T05:05:13.826Z,102445.22
2023-02-06T05:10:17.956Z,102417.69
2023-02-06T05:15:20.762Z,102401.47
2023-02-06T05:20:23.540Z,102391.25
2023-02-06T05:25:27.773Z,102394.81
2023-02-06T05:30:30.578Z,102393.09
2023-02-06T05:35:33.859Z,102391.09
2023-02-06T05:40:38.161Z,102403.78
2023-02-06T05:45:41.182Z,102414.13
2023-02-06T05:50:44.093Z,102418.22
2023-02-06T05:55:52.435Z,102414.44
2023-02-06T06:00:55.166Z,102400.56
2023-02-06T06:05:58.888Z,102399.72
2023-02-06T06:11:03.269Z,102390.16
2023-02-06T06:16:06.535Z,102390.84
2023-02-06T06:21:09.591Z,102390.84
2023-02-06T06:26:13.673Z,102414.84
2023-02-06T06:31:16.503Z,102409.59
2023-02-06T06:36:19.400Z,102414.75
2023-02-06T06:41:23.507Z,102418.97
2023-02-06T06:46:26.589Z,102424.09
2023-02-06T06:51:30.113Z,102437.69
2023-02-06T06:56:34.210Z,102439.31
2023-02-06T07:01:36.935Z,102446.09
2023-02-06T07:06:39.605Z,102436.53
2023-02-06T07:11:43.803Z,102435.56
2023-02-06T07:16:46.605Z,102430.47
2023-02-06T07:21:49.400Z,102433.91
2023-02-06T07:26:53.559Z,102419.97
2023-02-06T07:31:56.282Z,102425.09
2023-02-06T07:36:59.984Z,102412.19
2023-02-06T07:42:04.465Z,102425.84
2023-02-06T07:47:23.613Z,102413.56
2023-02-06T07:52:26.382Z,102400.38
2023-02-06T07:57:30.449Z,102402.00
2023-02-06T08:02:33.166Z,102396.72
2023-02-06T08:07:36.059Z,102401.75
2023-02-06T08:12:40.134Z,102403.28
2023-02-06T08:17:43.096Z,102406.66
2023-02-06T08:22:46.773Z,102408.25
2023-02-06T08:27:53.467Z,102411.59
2023-02-06T08:32:56.175Z,102401.22
2023-02-06T08:38:00.810Z,102389.16
2023-02-06T08:43:04.985Z,102392.44
2023-02-06T08:48:07.796Z,102382.19
2023-02-06T08:53:10.938Z,102387.16
2023-02-06T08:58:14.963Z,102382.69
2023-02-06T09:03:17.652Z,102381.53
2023-02-06T09:08:20.408Z,102370.25
2023-02-06T09:13:24.638Z,102362.56
2023-02-06T09:18:27.390Z,102371.28
2023-02-06T09:23:30.136Z,102364.41
2023-02-06T09:28:34.538Z,102376.94
2023-02-06T09:33:38.905Z,102368.22
2023-02-06T09:38:43.744Z,102361.22
2023-02-06T09:43:51.294Z,102361.13
2023-02-06T09:48:54.988Z,102375.59
2023-02-06T09:54:05.543Z,102377.28
2023-02-06T09:59:14.418Z,102357.41
2023-02-06T10:04:34.448Z,102371.09
2023-02-06T10:09:40.616Z,102371.03
2023-02-06T10:14:48.114Z,102370.19
2023-02-06T10:19:56.284Z,102369.25
2023-02-06T10:25:14.583Z,102364.84
2023-02-06T10:30:21.050Z,102366.59
2023-02-06T10:35:33.298Z,102351.81
2023-02-06T10:40:41.374Z,102343.13
2023-02-06T10:45:48.511Z,102350.03
2023-02-06T10:50:53.646Z,102346.34
2023-02-06T10:55:58.537Z,102358.41
2023-02-06T11:01:05.477Z,102358.34
2023-02-06T11:06:17.287Z,102346.06
2023-02-06T11:11:23.488Z,102339.91
2023-02-06T11:16:29.528Z,102345.97
2023-02-06T11:21:51.601Z,102325.28
2023-02-06T11:26:56.817Z,102316.47
2023-02-06T11:32:02.496Z,102314.81
2023-02-06T11:37:07.408Z,102312.91
2023-02-06T11:42:22.275Z,102318.66
2023-02-06T11:47:36.085Z,102308.28
2023-02-06T11:52:42.018Z,102321.16
2023-02-06T11:57:44.772Z,102317.16
2023-02-06T12:02:55.818Z,102327.50
2023-02-06T12:08:01.123Z,102318.09
2023-02-06T12:13:08.249Z,102321.56
2023-02-06T12:18:14.924Z,102317.16
2023-02-06T12:23:22.129Z,102323.13
2023-02-06T12:28:27.619Z,102312.63
2023-02-06T12:33:37.211Z,102311.75
2023-02-06T12:38:44.636Z,102329.19
2023-02-06T12:43:52.156Z,102320.72
2023-02-06T12:49:02.142Z,102319.81
2023-02-06T12:54:07.786Z,102321.59
2023-02-06T12:59:34.744Z,102322.41
2023-02-06T13:04:39.123Z,102323.16
2023-02-06T13:09:48.731Z,102310.13
2023-02-06T13:14:53.960Z,102309.91
2023-02-06T13:20:07.846Z,102316.78
2023-02-06T13:25:53.849Z,102329.94
2023-02-06T13:31:01.399Z,102331.81
2023-02-06T13:36:08.228Z,102327.59
2023-02-06T13:41:29.745Z,102332.00
2023-02-06T13:46:41.332Z,102334.47
2023-02-06T13:51:50.332Z,102342.16
2023-02-06T13:57:05.702Z,102343.97
2023-02-06T14:02:12.446Z,102358.78
2023-02-06T14:07:38.576Z,102358.13
2023-02-06T14:12:52.984Z,102361.72
2023-02-06T14:18:04.182Z,102360.94
2023-02-06T14:23:16.215Z,102375.09
2023-02-06T14:28:25.454Z,102382.94
2023-02-06T14:34:02.993Z,102385.53
2023-02-06T14:39:36.321Z,102386.06
2023-02-06T14:44:39.121Z,102384.28
2023-02-06T14:49:41.891Z,102390.34
2023-02-06T14:54:46.115Z,102401.94
2023-02-06T14:59:57.651Z,102395.06
2023-02-06T15:05:01.983Z,102402.06
2023-02-06T15:10:10.361Z,102412.47
2023-02-06T15:15:18.837Z,102427.00
2023-02-06T15:20:26.701Z,102422.66
2023-02-06T15:25:45.515Z,102440.28
2023-02-06T15:30:48.533Z,102441.31
2023-02-06T15:35:54.070Z,102455.91
2023-02-06T15:41:01.509Z,102464.44
2023-02-06T15:46:05.943Z,102461.03
2023-02-06T15:51:21.713Z,102457.63
2023-02-06T15:56:27.464Z,102467.16
2023-02-06T16:01:32.609Z,102486.31
2023-02-06T16:06:35.829Z,102494.22
2023-02-06T16:11:51.164Z,102490.69
2023-02-06T16:16:59.928Z,102520.13
2023-02-06T16:22:08.019Z,102524.53
2023-02-06T16:27:20.032Z,102528.00
2023-02-06T16:32:25.242Z,102552.38
2023-02-06T16:37:30.198Z,102566.19
2023-02-06T16:42:36.644Z,102559.16
2023-02-06T16:47:39.427Z,102561.63
2023-02-06T16:52:47.464Z,102571.19
2023-02-06T16:57:53.529Z,102565.41
2023-02-06T17:02:56.794Z,102556.94
2023-02-06T17:07:59.599Z,102564.25
2023-02-06T17:13:03.800Z,102554.28
2023-02-06T17:18:06.566Z,102562.97
2023-02-06T17:23:10.756Z,102562.22
2023-02-06T17:28:16.809Z,102578.72
2023-02-06T17:33:19.746Z,102588.25
2023-02-06T17:38:22.528Z,102599.56
2023-02-06T17:43:26.704Z,102595.28
2023-02-06T17:48:29.485Z,102604.63
2023-02-06T17:53:32.219Z,102599.69
2023-02-06T17:58:36.454Z,102602.31
2023-02-06T18:03:40.617Z,102603.41
2023-02-06T18:08:43.881Z,102601.78
2023-02-06T18:13:49.404Z,102603.47
2023-02-06T18:18:52.526Z,102603.34
2023-02-06T18:23:56.139Z,102615.56
2023-02-06T18:29:00.313Z,102601.78
2023-02-06T18:34:04.478Z,102601.97
2023-02-06T18:39:07.482Z,102601.94
2023-02-06T18:44:12.541Z,102608.88
2023-02-06T18:49:15.369Z,102619.28
2023-02-06T18:54:18.106Z,102602.84
2023-02-06T18:59:22.343Z,102613.97
2023-02-06T19:04:25.382Z,102617.44
2023-02-06T19:09:28.233Z,102627.81
2023-02-06T19:14:32.395Z,102629.56
2023-02-06T19:19:35.228Z,102627.06
2023-02-06T19:24:38.134Z,102627.16
2023-02-06T19:29:42.341Z,102622.03
2023-02-06T19:34:45.324Z,102606.47
2023-02-06T19:39:48.390Z,102612.56
2023-02-06T19:44:54.757Z,102606.78
2023-02-06T19:49:57.622Z,102622.41
2023-02-06T19:55:00.410Z,102636.25
2023-02-06T20:00:04.915Z,102641.44
2023-02-06T20:05:09.420Z,102654.28
2023-02-06T20:10:12.184Z,102653.53
2023-02-06T20:15:16.489Z,102658.63
2023-02-06T20:20:19.573Z,102661.38
2023-02-06T20:25:23.827Z,102669.97
2023-02-06T20:30:28.564Z,102661.41
2023-02-06T20:35:31.454Z,102670.00
2023-02-06T20:40:34.285Z,102692.47
2023-02-06T20:45:38.429Z,102677.06
2023-02-06T20:50:41.212Z,102667.50
2023-02-06T20:55:45.006Z,102687.19
2023-02-06T21:00:50.241Z,102697.59
2023-02-06T21:05:57.302Z,102719.06
2023-02-06T21:11:00.096Z,102726.97
2023-02-06T21:16:04.351Z,102716.69
2023-02-06T21:21:10.356Z,102714.94
2023-02-06T21:26:14.090Z,102717.44
2023-02-06T21:31:20.251Z,102705.41
2023-02-06T21:36:23.046Z,102699.56
2023-02-06T21:41:25.751Z,102698.00
2023-02-06T21:46:30.818Z,102701.53
2023-02-06T21:51:33.668Z,102713.78
2023-02-06T21:56:38.114Z,102728.34
2023-02-06T22:01:42.551Z,102701.59
2023-02-06T22:06:45.432Z,102707.56
2023-02-06T22:11:48.522Z,102710.16
2023-02-06T22:16:52.625Z,102732.69
2023-02-06T22:21:55.404Z,102737.00
2023-02-06T22:26:58.282Z,102730.94
2023-02-06T22:32:04.685Z,102724.06
2023-02-06T22:37:07.746Z,102735.31
2023-02-06T22:42:10.583Z,102738.78
2023-02-06T22:47:14.652Z,102742.22
2023-02-06T22:52:35.057Z,102752.44
2023-02-06T22:57:37.861Z,102756.81
2023-02-06T23:02:42.629Z,102755.97
2023-02-06T23:07:45.353Z,102766.25
2023-02-06T23:12:48.182Z,102753.41
2023-02-06T23:17:52.693Z,102755.34
2023-02-06T23:22:55.436Z,102770.91
2023-02-06T23:27:58.209Z,102768.34
2023-02-06T23:33:02.390Z,102765.97
2023-02-06T23:38:05.777Z,102766.81
2023-02-06T23:43:08.524Z,102783.06
2023-02-06T23:48:12.619Z,102762.44
2023-02-06T23:53:15.359Z,102766.69
2023-02-06T23:58:18.194Z,102761.47
